Climatologie pour Saint-Brevin les Pins
 
Jour • Résumé pour janvier 19, 2019 Système :  Métrique    Anglais   Mixte
« - 1 jour
+ 1 jour »
Jour Semaine Mois Année Personnalisé
  Actuellement : Maximum : Minimum : Moyenne :
Température sous abri : 10.2 °C 12.1 °C 3.9 °C 7.4 °C
Point de rosée : 7.8 °C 9.6 °C 3.2 °C 6.3 °C
Humidité : 85% 97% 80% 93%
Vitesse du vent : 0.0km/h 16.1km/h 0.0km/h 2.6km/h
Rafale : 12.9km/h 25.7km/h - -
Direction Calm - - WSW
Pression : 1006.8 hPa 1010.1 hPa 1006.8 hPa -
Précipitations : 2.0 mm      
Historical Graphs
 
 
Tableau de données pour janvier 19, 2019
Heure Tempé Pt rosée Pression Vent Vitesse Rafale Humidité Taux pluie (/hr) Soleil
00:00 6.9 °C 6.1 °C 1010.1 hPa SE 6.4 km/h 22.5 km/h 95% 0.3 mm 0.00 W/m2
00:05 6.9 °C 6.1 °C 1010.1 hPa SE 3.2 km/h 19.3 km/h 95% 0.3 mm 0.00 W/m2
00:10 6.9 °C 6.1 °C 1010.1 hPa Calm   19.3 km/h 95% 0.3 mm 0.00 W/m2
00:15 6.9 °C 6.1 °C 1010.1 hPa SE 4.8 km/h 16.1 km/h 95% 0.3 mm 0.00 W/m2
00:20 6.9 °C 6.2 °C 1010.1 hPa SSE 8.0 km/h 20.9 km/h 95% 0.3 mm 0.00 W/m2
00:25 7.0 °C 6.3 °C 1010.0 hPa South 3.2 km/h 20.9 km/h 95% 0.3 mm 0.00 W/m2
00:30 7.1 °C 6.3 °C 1010.0 hPa SSE 14.5 km/h 22.5 km/h 95% 0.3 mm 0.00 W/m2
00:35 7.1 °C 6.4 °C 1009.9 hPa South 8.0 km/h 22.5 km/h 95% 0.3 mm 0.00 W/m2
00:40 7.2 °C 6.6 °C 1009.9 hPa SSW 11.3 km/h 22.5 km/h 96% 0.3 mm 0.00 W/m2
00:45 7.2 °C 6.5 °C 1009.8 hPa South 9.7 km/h 22.5 km/h 95% 0.3 mm 0.00 W/m2
00:50 7.3 °C 6.5 °C 1009.7 hPa South 11.3 km/h 25.7 km/h 95% 0.3 mm 0.00 W/m2
00:55 7.3 °C 6.5 °C 1009.7 hPa South 9.7 km/h 25.7 km/h 95% 0.3 mm 0.00 W/m2
01:00 7.3 °C 6.5 °C 1009.5 hPa SSE 11.3 km/h 25.7 km/h 95% 0.3 mm 0.00 W/m2
01:05 7.5 °C 6.9 °C 1009.6 hPa Calm   22.5 km/h 96% 0.3 mm 0.00 W/m2
01:10 7.6 °C 7.0 °C 1009.7 hPa WSW 1.6 km/h 22.5 km/h 96% 0.3 mm 0.00 W/m2
01:15 7.6 °C 6.8 °C 1009.5 hPa West 11.3 km/h 17.7 km/h 95% 0.3 mm 0.00 W/m2
01:20 7.6 °C 6.8 °C 1009.6 hPa WNW 4.8 km/h 17.7 km/h 95% 0.3 mm 0.00 W/m2
01:25 7.6 °C 6.8 °C 1009.6 hPa West 6.4 km/h 17.7 km/h 95% 0.0 mm 0.00 W/m2
01:30 7.5 °C 6.6 °C 1009.6 hPa West 8.0 km/h 19.3 km/h 94% 0.0 mm 0.00 W/m2
01:35 7.4 °C 6.5 °C 1009.7 hPa WNW 1.6 km/h 19.3 km/h 94% 0.0 mm 0.00 W/m2
01:40 7.3 °C 6.4 °C 1009.8 hPa West 8.0 km/h 14.5 km/h 94% 0.0 mm 0.00 W/m2
01:45 7.2 °C 6.2 °C 1009.8 hPa Calm   14.5 km/h 93% 0.0 mm 0.00 W/m2
01:50 7.2 °C 6.1 °C 1009.8 hPa WNW 8.0 km/h 14.5 km/h 93% 0.0 mm 0.00 W/m2
01:55 7.1 °C 6.0 °C 1009.8 hPa West 6.4 km/h 14.5 km/h 93% 0.0 mm 0.00 W/m2
02:00 6.8 °C 5.8 °C 1009.9 hPa West 8.0 km/h 11.3 km/h 93% 0.0 mm 0.00 W/m2
02:05 6.8 °C 5.9 °C 1009.9 hPa Calm   9.7 km/h 94% 0.0 mm 0.00 W/m2
02:10 6.8 °C 5.9 °C 1009.9 hPa Calm   9.7 km/h 94% 0.0 mm 0.00 W/m2
02:15 6.4 °C 5.4 °C 1009.9 hPa NW 1.6 km/h 9.7 km/h 93% 0.0 mm 0.00 W/m2
02:20 6.2 °C 5.3 °C 1009.9 hPa Calm   6.4 km/h 94% 0.0 mm 0.00 W/m2
02:25 6.1 °C 5.2 °C 1010.0 hPa Calm   4.8 km/h 94% 0.0 mm 0.00 W/m2
02:30 5.9 °C 5.1 °C 1009.9 hPa Calm     94% 0.0 mm 0.00 W/m2
02:35 5.9 °C 5.1 °C 1009.9 hPa Calm     94% 0.0 mm 0.00 W/m2
02:40 5.8 °C 4.9 °C 1009.9 hPa Calm     94% 0.0 mm 0.00 W/m2
02:45 5.7 °C 4.8 °C 1009.9 hPa Calm     94% 0.0 mm 0.00 W/m2
02:50 5.6 °C 4.7 °C 1010.0 hPa Calm     94% 0.0 mm 0.00 W/m2
02:55 5.4 °C 4.6 °C 1009.9 hPa Calm     94% 0.0 mm 0.00 W/m2
03:00 5.2 °C 4.3 °C 1009.9 hPa Calm     94% 0.0 mm 0.00 W/m2
03:05 4.9 °C 4.1 °C 1009.9 hPa Calm     94% 0.0 mm 0.00 W/m2
03:10 4.7 °C 3.8 °C 1009.9 hPa Calm     94% 0.0 mm 0.00 W/m2
03:15 4.6 °C 3.7 °C 1009.9 hPa Calm     94% 0.0 mm 0.00 W/m2
03:20 4.4 °C 3.6 °C 1009.8 hPa Calm     94% 0.0 mm 0.00 W/m2
03:25 4.4 °C 3.6 °C 1009.7 hPa Calm     94% 0.0 mm 0.00 W/m2
03:30 4.4 °C 3.5 °C 1009.7 hPa Calm     94% 0.0 mm 0.00 W/m2
03:35 4.3 °C 3.5 °C 1009.7 hPa Calm     94% 0.0 mm 0.00 W/m2
03:40 4.3 °C 3.5 °C 1009.7 hPa Calm     94% 0.0 mm 0.00 W/m2
03:45 4.4 °C 3.5 °C 1009.7 hPa Calm     94% 0.0 mm 0.00 W/m2
03:50 4.6 °C 3.7 °C 1009.7 hPa Calm     94% 0.5 mm 0.00 W/m2
03:55 4.6 °C 3.7 °C 1009.6 hPa Calm     94% 0.5 mm 0.00 W/m2
04:00 4.7 °C 3.8 °C 1009.7 hPa Calm     94% 0.5 mm 0.00 W/m2
04:05 4.7 °C 3.8 °C 1009.6 hPa Calm     94% 0.5 mm 0.00 W/m2
04:10 4.7 °C 3.8 °C 1009.6 hPa Calm     94% 0.5 mm 0.00 W/m2
04:15 4.7 °C 3.8 °C 1009.5 hPa Calm     94% 0.5 mm 0.00 W/m2
04:20 4.7 °C 3.8 °C 1009.4 hPa Calm     94% 0.5 mm 0.00 W/m2
04:25 4.7 °C 3.8 °C 1009.4 hPa Calm     94% 0.8 mm 0.00 W/m2
04:30 4.7 °C 3.8 °C 1009.4 hPa Calm     94% 0.8 mm 0.00 W/m2
04:35 4.7 °C 3.8 °C 1009.4 hPa Calm     94% 0.8 mm 0.00 W/m2
04:40 4.6 °C 3.7 °C 1009.3 hPa Calm     94% 0.8 mm 0.00 W/m2
04:45 4.6 °C 3.8 °C 1009.4 hPa Calm     95% 0.8 mm 0.00 W/m2
04:50 4.6 °C 3.8 °C 1009.3 hPa Calm     95% 0.5 mm 0.00 W/m2
04:55 4.5 °C 3.8 °C 1009.2 hPa Calm     95% 0.3 mm 0.00 W/m2
05:00 4.4 °C 3.7 °C 1009.2 hPa Calm     95% 0.3 mm 0.00 W/m2
05:05 4.4 °C 3.7 °C 1009.2 hPa Calm     95% 0.3 mm 0.00 W/m2
05:10 4.3 °C 3.6 °C 1009.1 hPa Calm     95% 0.3 mm 0.00 W/m2
05:15 4.3 °C 3.5 °C 1009.1 hPa Calm     95% 0.3 mm 0.00 W/m2
05:20 4.3 °C 3.5 °C 1009.0 hPa Calm     95% 0.3 mm 0.00 W/m2
05:25 4.2 °C 3.5 °C 1009.0 hPa Calm     95% 0.0 mm 0.00 W/m2
05:30 4.2 °C 3.4 °C 1008.9 hPa Calm     95% 0.0 mm 0.00 W/m2
05:35 4.1 °C 3.4 °C 1008.9 hPa Calm     95% 0.0 mm 0.00 W/m2
05:40 4.1 °C 3.3 °C 1008.9 hPa Calm     95% 0.0 mm 0.00 W/m2
05:45 4.0 °C 3.3 °C 1008.9 hPa Calm     95% 0.0 mm 0.00 W/m2
05:50 3.9 °C 3.2 °C 1008.9 hPa Calm     95% 0.0 mm 0.00 W/m2
05:55 3.9 °C 3.2 °C 1008.9 hPa Calm     95% 0.0 mm 0.00 W/m2
06:00 4.1 °C 3.4 °C 1008.8 hPa Calm     95% 0.3 mm 0.00 W/m2
06:05 4.3 °C 3.6 °C 1008.8 hPa Calm   8.0 km/h 95% 0.5 mm 0.00 W/m2
06:10 4.5 °C 3.9 °C 1008.9 hPa Calm   8.0 km/h 96% 0.5 mm 0.00 W/m2
06:15 4.6 °C 4.0 °C 1008.8 hPa SSW 3.2 km/h 6.4 km/h 96% 0.5 mm 0.00 W/m2
06:20 4.9 °C 4.4 °C 1008.8 hPa Calm   6.4 km/h 96% 0.5 mm 0.00 W/m2
06:25 5.2 °C 4.6 °C 1008.6 hPa Calm   3.2 km/h 96% 0.5 mm 0.00 W/m2
06:30 5.3 °C 4.7 °C 1008.7 hPa Calm     96% 0.5 mm 0.00 W/m2
06:35 5.5 °C 4.9 °C 1008.7 hPa Calm     96% 0.5 mm 0.00 W/m2
06:40 5.7 °C 5.1 °C 1008.7 hPa Calm   4.8 km/h 96% 0.5 mm 0.00 W/m2
06:45 5.7 °C 5.1 °C 1008.7 hPa Calm   4.8 km/h 96% 0.5 mm 0.00 W/m2
06:50 5.8 °C 5.2 °C 1008.7 hPa Calm     96% 0.5 mm 0.00 W/m2
06:55 5.9 °C 5.3 °C 1008.8 hPa Calm     96% 0.5 mm 0.00 W/m2
07:00 6.1 °C 5.5 °C 1008.7 hPa Calm     96% 0.5 mm 0.00 W/m2
07:05 6.1 °C 5.5 °C 1008.7 hPa Calm     96% 0.3 mm 0.00 W/m2
07:10 6.2 °C 5.6 °C 1008.7 hPa Calm   6.4 km/h 96% 0.0 mm 0.00 W/m2
07:15 6.3 °C 5.7 °C 1008.6 hPa Calm   6.4 km/h 96% 0.0 mm 0.00 W/m2
07:20 6.3 °C 5.7 °C 1008.6 hPa Calm   6.4 km/h 96% 0.0 mm 0.00 W/m2
07:25 6.4 °C 5.9 °C 1008.6 hPa Calm   6.4 km/h 96% 0.0 mm 0.00 W/m2
07:30 6.4 °C 5.9 °C 1008.6 hPa Calm   1.6 km/h 96% 0.0 mm 0.00 W/m2
07:35 6.4 °C 5.9 °C 1008.6 hPa Calm     96% 0.0 mm 0.00 W/m2
07:40 6.4 °C 5.9 °C 1008.7 hPa Calm     96% 0.0 mm 0.00 W/m2
07:45 6.5 °C 5.9 °C 1008.7 hPa WSW 4.8 km/h 6.4 km/h 96% 0.0 mm 0.00 W/m2
07:50 6.6 °C 6.0 °C 1008.7 hPa West 6.4 km/h 11.3 km/h 96% 0.0 mm 0.00 W/m2
07:55 6.7 °C 6.1 °C 1008.7 hPa Calm   12.9 km/h 96% 0.0 mm 0.00 W/m2
08:00 6.8 °C 6.2 °C 1008.7 hPa Calm   12.9 km/h 96% 0.0 mm 0.00 W/m2
08:05 6.9 °C 6.3 °C 1008.7 hPa Calm   11.3 km/h 96% 0.0 mm 0.00 W/m2
08:10 6.9 °C 6.4 °C 1008.7 hPa SW 6.4 km/h 11.3 km/h 96% 0.0 mm 0.00 W/m2
08:15 6.9 °C 6.4 °C 1008.6 hPa WSW 4.8 km/h 11.3 km/h 96% 0.0 mm 0.00 W/m2
08:20 6.9 °C 6.3 °C 1008.6 hPa Calm   8.0 km/h 96% 0.0 mm 0.00 W/m2
08:25 6.8 °C 6.2 °C 1008.6 hPa Calm   4.8 km/h 96% 0.0 mm 0.00 W/m2
08:30 6.8 °C 6.2 °C 1008.6 hPa Calm     96% 0.0 mm 0.00 W/m2
08:35 6.8 °C 6.2 °C 1008.6 hPa Calm     96% 0.0 mm 0.00 W/m2
08:40 6.7 °C 6.1 °C 1008.7 hPa Calm     96% 0.0 mm 0.00 W/m2
08:45 6.7 °C 6.1 °C 1008.7 hPa Calm     96% 0.0 mm 0.00 W/m2
08:50 6.6 °C 6.0 °C 1008.8 hPa Calm     96% 0.0 mm 0.00 W/m2
08:55 6.6 °C 6.0 °C 1008.8 hPa Calm     96% 0.0 mm 0.00 W/m2
09:00 6.5 °C 5.9 °C 1008.8 hPa Calm     96% 0.0 mm 5.00 W/m2
09:05 6.4 °C 5.9 °C 1008.8 hPa Calm     96% 0.0 mm 7.00 W/m2
09:10 6.4 °C 5.9 °C 1008.8 hPa Calm     96% 0.3 mm 11.00 W/m2
09:15 6.4 °C 5.8 °C 1008.8 hPa Calm     96% 0.3 mm 18.00 W/m2
09:20 6.4 °C 5.8 °C 1008.8 hPa Calm     96% 0.3 mm 23.00 W/m2
09:25 6.4 °C 5.8 °C 1008.8 hPa Calm   1.6 km/h 96% 0.3 mm 26.00 W/m2
09:30 6.3 °C 5.7 °C 1008.8 hPa Calm   1.6 km/h 96% 0.3 mm 37.00 W/m2
09:35 6.4 °C 5.8 °C 1008.8 hPa Calm     96% 0.3 mm 40.00 W/m2
09:40 6.4 °C 5.9 °C 1008.9 hPa Calm     96% 0.3 mm 62.00 W/m2
09:45 6.5 °C 5.9 °C 1008.8 hPa Calm     96% 0.3 mm 33.00 W/m2
09:50 6.7 °C 6.3 °C 1008.8 hPa SW 1.6 km/h 9.7 km/h 97% 0.3 mm 23.00 W/m2
09:55 6.8 °C 6.2 °C 1008.8 hPa SW 1.6 km/h 9.7 km/h 96% 0.5 mm 30.00 W/m2
10:00 7.0 °C 6.6 °C 1008.8 hPa Calm   6.4 km/h 97% 0.5 mm 39.00 W/m2
10:05 7.1 °C 6.6 °C 1008.9 hPa Calm   1.6 km/h 97% 0.5 mm 53.00 W/m2
10:10 7.1 °C 6.7 °C 1008.9 hPa Calm     97% 0.3 mm 88.00 W/m2
10:15 7.7 °C 7.2 °C 1008.9 hPa Calm     97% 0.3 mm 56.00 W/m2
10:20 7.8 °C 7.3 °C 1008.9 hPa Calm     97% 0.3 mm 70.00 W/m2
10:25 7.9 °C 7.5 °C 1008.9 hPa SSW 3.2 km/h 8.0 km/h 97% 0.3 mm 109.00 W/m2
10:30 8.1 °C 7.6 °C 1009.0 hPa Calm   8.0 km/h 97% 0.3 mm 114.00 W/m2
10:35 8.2 °C 7.6 °C 1009.0 hPa Calm   8.0 km/h 96% 0.3 mm 107.00 W/m2
10:40 8.3 °C 7.8 °C 1009.0 hPa Calm   6.4 km/h 97% 0.3 mm 62.00 W/m2
10:45 8.2 °C 7.6 °C 1009.0 hPa Calm   6.4 km/h 96% 0.3 mm 113.00 W/m2
10:50 8.2 °C 7.6 °C 1009.1 hPa Calm     96% 0.3 mm 148.00 W/m2
10:55 8.2 °C 7.6 °C 1009.1 hPa Calm     96% 0.0 mm 216.00 W/m2
11:00 8.4 °C 7.8 °C 1009.1 hPa Calm     96% 0.0 mm 225.00 W/m2
11:05 8.7 °C 8.1 °C 1009.2 hPa Calm     96% 0.0 mm 255.00 W/m2
11:10 9.0 °C 8.4 °C 1009.1 hPa Calm     96% 0.0 mm 257.00 W/m2
11:15 9.1 °C 8.3 °C 1009.2 hPa West 9.7 km/h 9.7 km/h 95% 0.0 mm 262.00 W/m2
11:20 9.2 °C 8.3 °C 1009.2 hPa WSW 8.0 km/h 14.5 km/h 94% 0.0 mm 267.00 W/m2
11:25 9.5 °C 8.6 °C 1009.1 hPa WSW 1.6 km/h 14.5 km/h 94% 0.0 mm 276.00 W/m2
11:30 9.7 °C 8.8 °C 1009.1 hPa Calm   8.0 km/h 94% 0.0 mm 285.00 W/m2
11:35 9.9 °C 9.0 °C 1009.1 hPa SSW 4.8 km/h 9.7 km/h 94% 0.0 mm 288.00 W/m2
11:40 10.0 °C 8.9 °C 1009.1 hPa SW 6.4 km/h 11.3 km/h 93% 0.0 mm 297.00 W/m2
11:45 10.2 °C 9.2 °C 1009.1 hPa Calm   11.3 km/h 94% 0.0 mm 306.00 W/m2
11:50 10.2 °C 9.1 °C 1009.1 hPa WSW 4.8 km/h 9.7 km/h 93% 0.0 mm 309.00 W/m2
11:55 10.3 °C 9.3 °C 1009.1 hPa Calm   11.3 km/h 93% 0.0 mm 325.00 W/m2
12:00 10.3 °C 9.0 °C 1009.1 hPa Calm   11.3 km/h 92% 0.0 mm 320.00 W/m2
12:05 10.3 °C 9.0 °C 1009.1 hPa SSW 6.4 km/h 11.3 km/h 92% 0.0 mm 302.00 W/m2
12:10 10.3 °C 9.1 °C 1009.0 hPa Calm   11.3 km/h 92% 0.0 mm 330.00 W/m2
12:15 10.4 °C 9.2 °C 1009.0 hPa Calm   11.3 km/h 92% 0.0 mm 332.00 W/m2
12:20 10.4 °C 9.2 °C 1008.9 hPa WSW 4.8 km/h 11.3 km/h 92% 0.0 mm 341.00 W/m2
12:25 10.6 °C 9.1 °C 1008.8 hPa WSW 3.2 km/h 14.5 km/h 91% 0.0 mm 369.00 W/m2
12:30 10.9 °C 9.5 °C 1008.8 hPa Calm   14.5 km/h 91% 0.0 mm 464.00 W/m2
12:35 11.2 °C 9.6 °C 1008.7 hPa WSW 3.2 km/h 14.5 km/h 90% 0.0 mm 457.00 W/m2
12:40 11.1 °C 9.3 °C 1008.7 hPa SW 8.0 km/h 12.9 km/h 89% 0.0 mm 202.00 W/m2
12:45 10.7 °C 8.9 °C 1008.6 hPa West 8.0 km/h 17.7 km/h 89% 0.0 mm 216.00 W/m2
12:50 10.7 °C 9.1 °C 1008.5 hPa Calm   17.7 km/h 90% 0.0 mm 306.00 W/m2
12:55 10.8 °C 9.3 °C 1008.5 hPa West 6.4 km/h 12.9 km/h 90% 0.0 mm 311.00 W/m2
13:00 11.2 °C 9.4 °C 1008.4 hPa SW 11.3 km/h 14.5 km/h 89% 0.0 mm 485.00 W/m2
13:05 11.4 °C 9.3 °C 1008.4 hPa WSW 8.0 km/h 19.3 km/h 87% 0.0 mm 330.00 W/m2
13:10 11.2 °C 9.0 °C 1008.3 hPa SW 14.5 km/h 19.3 km/h 86% 0.0 mm 225.00 W/m2
13:15 11.1 °C 9.0 °C 1008.3 hPa West 1.6 km/h 14.5 km/h 87% 0.0 mm 239.00 W/m2
13:20 10.9 °C 8.6 °C 1008.2 hPa WSW 9.7 km/h 16.1 km/h 86% 0.0 mm 214.00 W/m2
13:25 10.7 °C 8.6 °C 1008.1 hPa WSW 8.0 km/h 16.1 km/h 87% 0.0 mm 229.00 W/m2
13:30 10.9 °C 9.2 °C 1008.0 hPa WSW 1.6 km/h 16.1 km/h 89% 0.0 mm 267.00 W/m2
13:35 11.4 °C 9.3 °C 1008.0 hPa WNW 6.4 km/h 19.3 km/h 87% 0.0 mm 497.00 W/m2
13:40 11.7 °C 9.5 °C 1007.9 hPa West 9.7 km/h 19.3 km/h 86% 0.0 mm 517.00 W/m2
13:45 12.1 °C 9.3 °C 1007.7 hPa West 6.4 km/h 17.7 km/h 83% 0.0 mm 487.00 W/m2
13:50 11.8 °C 8.4 °C 1007.7 hPa West 6.4 km/h 19.3 km/h 80% 0.0 mm 448.00 W/m2
13:55 11.6 °C 8.4 °C 1007.6 hPa West 12.9 km/h 19.3 km/h 81% 0.0 mm 385.00 W/m2
14:00 11.3 °C 8.3 °C 1007.6 hPa SW 12.9 km/h 17.7 km/h 82% 0.0 mm 388.00 W/m2
14:05 11.2 °C 8.2 °C 1007.5 hPa West 1.6 km/h 19.3 km/h 82% 0.0 mm 410.00 W/m2
14:10 11.8 °C 9.2 °C 1007.5 hPa West 6.4 km/h 19.3 km/h 84% 0.0 mm 193.00 W/m2
14:15 11.2 °C 8.0 °C 1007.5 hPa West 3.2 km/h 17.7 km/h 81% 0.0 mm 178.00 W/m2
14:20 10.7 °C 7.9 °C 1007.4 hPa West 11.3 km/h 14.5 km/h 83% 0.0 mm 169.00 W/m2
14:25 10.3 °C 7.7 °C 1007.4 hPa WNW 3.2 km/h 14.5 km/h 84% 0.0 mm 176.00 W/m2
14:30 10.3 °C 7.9 °C 1007.3 hPa West 6.4 km/h 14.5 km/h 85% 0.0 mm 183.00 W/m2
14:35 10.3 °C 7.9 °C 1007.3 hPa West 6.4 km/h 14.5 km/h 85% 0.0 mm 165.00 W/m2
14:40 10.3 °C 7.9 °C 1007.2 hPa West 16.1 km/h 16.1 km/h 85% 0.0 mm 172.00 W/m2
14:45 10.3 °C 7.9 °C 1007.2 hPa Calm   16.1 km/h 85% 0.0 mm 160.00 W/m2
14:50 10.3 °C 7.9 °C 1007.2 hPa Calm   16.1 km/h 85% 0.0 mm 144.00 W/m2
14:55 10.3 °C 7.7 °C 1007.1 hPa Calm   16.1 km/h 84% 0.0 mm 137.00 W/m2
15:00 10.2 °C 7.6 °C 1007.1 hPa West 6.4 km/h 14.5 km/h 84% 0.0 mm 125.00 W/m2
15:05 10.2 °C 7.6 °C 1007.0 hPa WNW 1.6 km/h 14.5 km/h 84% 0.0 mm 107.00 W/m2
15:10 10.2 °C 7.6 °C 1007.0 hPa West 8.0 km/h 14.5 km/h 84% 0.0 mm 100.00 W/m2
15:15 10.1 °C 7.5 °C 1007.0 hPa WSW 4.8 km/h 9.7 km/h 84% 0.0 mm 77.00 W/m2
15:20 9.9 °C 7.5 °C 1006.9 hPa West 8.0 km/h 12.9 km/h 85% 0.0 mm 79.00 W/m2
15:25 9.9 °C 7.4 °C 1006.9 hPa Calm   12.9 km/h 84% 0.0 mm 84.00 W/m2
15:30 9.9 °C 7.1 °C 1006.9 hPa SW 11.3 km/h 12.9 km/h 83% 0.0 mm 95.00 W/m2
15:35 9.9 °C 7.1 °C 1006.9 hPa Calm   14.5 km/h 83% 0.0 mm 114.00 W/m2
15:40 9.9 °C 7.4 °C 1006.9 hPa Calm   14.5 km/h 84% 0.0 mm 120.00 W/m2
15:45 10.1 °C 7.5 °C 1006.9 hPa West 8.0 km/h 9.7 km/h 84% 0.0 mm 169.00 W/m2
15:50 10.2 °C 7.8 °C 1006.9 hPa West 8.0 km/h 12.9 km/h 85% 0.0 mm 134.00 W/m2
15:55 10.3 °C 7.9 °C 1006.9 hPa WSW 6.4 km/h 12.9 km/h 85% 0.0 mm 123.00 W/m2
16:00 10.2 °C 7.8 °C 1006.8 hPa Calm   12.9 km/h 85% 0.0 mm 123.00 W/m2